Deus Dos Peixes — CUIA4 — position and weather

sailwx.info

Track history (hours):
 
Tides and Currents Weather Stations Pressure Air Temp Water Temp Dewpoint Dewpoint Depression Visibility Wind Speed Wind Dir Waves Ship Positions

Deus Dos Peixes

Last reported at 2017-Oct-13 16:52 UTC. Time now 2017-Oct-17 15:48 UTC.
Position N 41°14' W 008°45'.

Length 10 m.

Type: Fishing. MMSI: 263415250.

Date/timePositionNaut miles runAvg speedWind from/ knotsBaromVisibWave heightAir tempDewpointWater temp
2017-Oct-13 16:52N 41°14' W 008°45'3 6.8
2017-Oct-13 16:30N 41°12' W 008°44'2 1.2
2017-Oct-13 14:46N 41°10' W 008°42'2 6.3
2017-Oct-13 14:30N 41°11' W 008°45'3 0.3
2017-Oct-13 01:14N 41°12' W 008°49'1 5.4
2017-Oct-13 00:58N 41°11' W 008°47'2 5.4
2017-Oct-13 00:30N 41°11' W 008°44'1 0.1
2017-Oct-12 12:56N 41°10' W 008°42'3 6.2
2017-Oct-12 12:30N 41°08' W 008°45'1 0.1
2017-Oct-12 00:58N 41°08' W 008°46'3 5.9
2017-Oct-12 00:30N 41°09' W 008°44'1 0.0
2017-Oct-10 15:58N 41°10' W 008°42'3 6.0
2017-Oct-10 15:30N 41°08' W 008°44'2 0.1
2017-Oct-10 01:11N 41°06' W 008°46'1 5.6
2017-Oct-10 01:00N 41°07' W 008°45'3 5.7
2017-Oct-10 00:30N 41°10' W 008°43'  
2017-Oct-06 13:56N 41°10' W 008°42'3 6.7
2017-Oct-06 13:30N 41°10' W 008°46'4 0.3
2017-Oct-06 01:53N 41°10' W 008°51'3 5.6
2017-Oct-06 01:23N 41°10' W 008°47'2 5.7
2017-Oct-06 01:00N 41°10' W 008°44'0 0.0
2017-Oct-05 15:01N 41°10' W 008°44'0 5.7
2017-Oct-05 15:01N 41°10' W 008°44'4 0.3
2017-Oct-05 01:44N 41°10' W 008°49'1 5.3
2017-Oct-05 01:28N 41°10' W 008°47'2 5.3
2017-Oct-05 01:00N 41°10' W 008°44'1 0.1
2017-Oct-04 13:49N 41°10' W 008°42'5 0.4
2017-Oct-04 00:59N 41°13' W 008°49'3 5.8
2017-Oct-04 00:30N 41°11' W 008°45'2 4.6
2017-Oct-04 00:00N 41°11' W 008°42'  
Track history (hours):
 
Tides and Currents Weather Stations Pressure Air Temp Water Temp Dewpoint Dewpoint Depression Visibility Wind Speed Wind Dir Waves Ship Positions

Deus Dos Peixes

Last reported at 2017-Oct-13 16:52 UTC. Time now 2017-Oct-17 15:48 UTC.
Position N 41°14' W 008°45'.

Length 10 m.

Type: Fishing. MMSI: 263415250.

Date/timePositionNaut miles runAvg speedWind from/ knotsBaromVisibWave heightAir tempDewpointWater temp
2017-Oct-13 16:52N 41°14' W 008°45'3 6.8
2017-Oct-13 16:30N 41°12' W 008°44'2 1.2
2017-Oct-13 14:46N 41°10' W 008°42'2 6.3
2017-Oct-13 14:30N 41°11' W 008°45'3 0.3
2017-Oct-13 01:14N 41°12' W 008°49'1 5.4
2017-Oct-13 00:58N 41°11' W 008°47'2 5.4
2017-Oct-13 00:30N 41°11' W 008°44'1 0.1
2017-Oct-12 12:56N 41°10' W 008°42'3 6.2
2017-Oct-12 12:30N 41°08' W 008°45'1 0.1
2017-Oct-12 00:58N 41°08' W 008°46'3 5.9
2017-Oct-12 00:30N 41°09' W 008°44'1 0.0
2017-Oct-10 15:58N 41°10' W 008°42'3 6.0
2017-Oct-10 15:30N 41°08' W 008°44'2 0.1
2017-Oct-10 01:11N 41°06' W 008°46'1 5.6
2017-Oct-10 01:00N 41°07' W 008°45'3 5.7
2017-Oct-10 00:30N 41°10' W 008°43'  
2017-Oct-06 13:56N 41°10' W 008°42'3 6.7
2017-Oct-06 13:30N 41°10' W 008°46'4 0.3
2017-Oct-06 01:53N 41°10' W 008°51'3 5.6
2017-Oct-06 01:23N 41°10' W 008°47'2 5.7
2017-Oct-06 01:00N 41°10' W 008°44'0 0.0
2017-Oct-05 15:01N 41°10' W 008°44'0 5.7
2017-Oct-05 15:01N 41°10' W 008°44'4 0.3
2017-Oct-05 01:44N 41°10' W 008°49'1 5.3
2017-Oct-05 01:28N 41°10' W 008°47'2 5.3
2017-Oct-05 01:00N 41°10' W 008°44'1 0.1
2017-Oct-04 13:49N 41°10' W 008°42'5 0.4
2017-Oct-04 00:59N 41°13' W 008°49'3 5.8
2017-Oct-04 00:30N 41°11' W 008°45'2 4.6
2017-Oct-04 00:00N 41°11' W 008°42'  

Dump ship's entire track history